Time;durP1;ratioP1;P1;durP2;ratioP2;P2;SDS_P1;SDS_P2;PMS_P1;PMS_P2;Temp;Humidity;BMP_temperature;BMP_pressure;BME280_temperature;BME280_humidity;BME280_pressure;Samples;Min_cycle;Max_cycle;Signal;HPM_P1;HPM_P2
2022/08/30 00:01:02;;;;;;;7.18;4.57;;;;;;;;;;5063961;28;20066;-81
2022/08/30 00:03:29;;;;;;;6.70;5.15;;;;;;;;;;5062825;28;20028;-81
2022/08/30 00:05:56;;;;;;;7.78;4.85;;;;;;;;;;5061610;28;20564;-82
2022/08/30 00:08:22;;;;;;;6.28;4.40;;;;;;;;;;5062574;28;20048;-82
2022/08/30 00:10:49;;;;;;;6.20;4.40;;;;;;;;;;5062697;28;20481;-81
2022/08/30 00:13:16;;;;;;;6.18;4.40;;;;;;;;;;5062540;28;20035;-82
2022/08/30 00:15:42;;;;;;;5.60;4.50;;;;;;;;;;5063237;28;20040;-82
2022/08/30 00:18:08;;;;;;;5.90;4.55;;;;;;;;;;5063456;28;20029;-82
2022/08/30 00:20:36;;;;;;;6.15;4.32;;;;;;;;;;5063718;28;20089;-81
2022/08/30 00:23:02;;;;;;;7.43;4.47;;;;;;;;;;5063097;28;20033;-82
2022/08/30 00:25:28;;;;;;;6.10;4.65;;;;;;;;;;5061960;28;20033;-82
2022/08/30 00:27:53;;;;;;;7.82;4.35;;;;;;;;;;5062332;28;20041;-82
2022/08/30 00:30:19;;;;;;;6.80;5.32;;;;;;;;;;5062220;28;20032;-82
2022/08/30 00:32:46;;;;;;;5.25;4.03;;;;;;;;;;5061197;28;20041;-82
2022/08/30 00:35:14;;;;;;;9.38;5.18;;;;;;;;;;5061373;28;20040;-82
2022/08/30 00:37:39;;;;;;;6.70;4.72;;;;;;;;;;5062218;28;20490;-82
2022/08/30 00:40:08;;;;;;;6.78;4.72;;;;;;;;;;5062340;28;20066;-83
2022/08/30 00:42:34;;;;;;;9.82;5.10;;;;;;;;;;5059704;28;20036;-82
2022/08/30 00:45:12;;;;;;;6.43;5.00;;;;;;;;;;5059325;28;20036;-83
2022/08/30 00:47:37;;;;;;;7.15;4.57;;;;;;;;;;5058987;28;20037;-82
2022/08/30 00:50:07;;;;;;;9.32;4.60;;;;;;;;;;5057045;28;20375;-82
2022/08/30 00:52:34;;;;;;;5.78;4.43;;;;;;;;;;5058257;28;20048;-81
2022/08/30 00:55:01;;;;;;;13.82;5.03;;;;;;;;;;5058089;28;20033;-82
2022/08/30 00:57:27;;;;;;;5.90;4.68;;;;;;;;;;5058436;28;20043;-81
2022/08/30 00:59:53;;;;;;;6.13;4.80;;;;;;;;;;5057595;28;20029;-82
2022/08/30 01:02:21;;;;;;;6.47;4.50;;;;;;;;;;5057207;28;20040;-82
2022/08/30 01:04:47;;;;;;;6.72;4.50;;;;;;;;;;5056698;28;20040;-81
2022/08/30 01:07:14;;;;;;;5.28;4.45;;;;;;;;;;5057148;28;20104;-81
2022/08/30 01:09:40;;;;;;;6.53;4.82;;;;;;;;;;5057235;28;20111;-81
2022/08/30 01:12:05;;;;;;;5.47;4.32;;;;;;;;;;5057160;28;20063;-82
2022/08/30 01:14:32;;;;;;;5.22;4.50;;;;;;;;;;5058595;28;20067;-82
2022/08/30 01:17:00;;;;;;;6.40;4.63;;;;;;;;;;5058504;28;20033;-82
2022/08/30 01:20:03;;;;;;;7.75;5.22;;;;;;;;;;5055764;28;20118;-82
2022/08/30 01:22:47;;;;;;;6.68;5.00;;;;;;;;;;5056943;28;20580;-82
2022/08/30 01:25:34;;;;;;;6.85;4.88;;;;;;;;;;5056967;28;20029;-82
2022/08/30 01:28:04;;;;;;;9.73;4.85;;;;;;;;;;5058140;28;20079;-82
2022/08/30 01:30:31;;;;;;;5.78;4.95;;;;;;;;;;5058467;28;20416;-82
2022/08/30 01:33:00;;;;;;;10.25;5.28;;;;;;;;;;5039495;28;20020;-82
2022/08/30 01:35:27;;;;;;;8.00;4.97;;;;;;;;;;5056564;28;20029;-82
2022/08/30 01:37:53;;;;;;;10.13;5.10;;;;;;;;;;5057565;28;20048;-81
2022/08/30 01:40:19;;;;;;;5.70;4.30;;;;;;;;;;5056295;28;20048;-82
2022/08/30 01:42:45;;;;;;;6.70;4.45;;;;;;;;;;5057597;28;20033;-82
2022/08/30 01:45:11;;;;;;;8.50;4.20;;;;;;;;;;5056931;28;20055;-82
2022/08/30 01:47:36;;;;;;;5.45;4.28;;;;;;;;;;5055115;28;20151;-82
2022/08/30 01:50:05;;;;;;;5.57;4.38;;;;;;;;;;5055131;28;20036;-81
2022/08/30 01:52:30;;;;;;;7.15;4.45;;;;;;;;;;5056614;28;20063;-84
2022/08/30 01:54:56;;;;;;;5.65;4.20;;;;;;;;;;5056391;28;20029;-81
2022/08/30 01:57:25;;;;;;;6.30;4.40;;;;;;;;;;5056715;28;20040;-81
2022/08/30 01:59:51;;;;;;;8.77;4.43;;;;;;;;;;5055446;28;20029;-81
2022/08/30 02:02:21;;;;;;;6.63;4.03;;;;;;;;;;5055587;28;20038;-82
2022/08/30 02:04:47;;;;;;;9.38;4.30;;;;;;;;;;5056564;28;20048;-82
2022/08/30 02:07:13;;;;;;;4.80;4.03;;;;;;;;;;5038982;28;20079;-82
2022/08/30 02:09:39;;;;;;;8.07;4.43;;;;;;;;;;5055492;28;20444;-80
2022/08/30 02:12:06;;;;;;;6.60;4.40;;;;;;;;;;5057240;28;20060;-83
2022/08/30 02:14:33;;;;;;;6.35;4.32;;;;;;;;;;5057001;28;20040;-81
2022/08/30 02:17:01;;;;;;;5.90;4.82;;;;;;;;;;5056083;28;20113;-81
2022/08/30 02:19:27;;;;;;;4.97;4.30;;;;;;;;;;5054936;28;20098;-80
2022/08/30 02:21:52;;;;;;;6.57;4.45;;;;;;;;;;5056103;28;20032;-81
2022/08/30 02:24:18;;;;;;;5.50;4.40;;;;;;;;;;5055091;28;20039;-82
2022/08/30 02:26:43;;;;;;;6.10;4.60;;;;;;;;;;5055559;28;20036;-81
2022/08/30 02:29:09;;;;;;;7.65;4.95;;;;;;;;;;5057289;28;20044;-82
2022/08/30 02:31:34;;;;;;;5.25;4.32;;;;;;;;;;5060601;28;20068;-81
2022/08/30 02:34:00;;;;;;;5.63;4.20;;;;;;;;;;5042550;28;20036;-82
2022/08/30 02:36:26;;;;;;;5.70;4.47;;;;;;;;;;5042379;28;20115;-82
2022/08/30 02:38:52;;;;;;;5.68;4.68;;;;;;;;;;5058504;28;20489;-82
2022/08/30 02:41:19;;;;;;;7.57;4.85;;;;;;;;;;5059918;28;20033;-81
2022/08/30 02:43:45;;;;;;;8.73;4.95;;;;;;;;;;5059164;28;20028;-81
2022/08/30 02:46:10;;;;;;;8.40;5.38;;;;;;;;;;5057850;28;20044;-82
2022/08/30 02:48:36;;;;;;;6.65;4.63;;;;;;;;;;5058217;28;20033;-81
2022/08/30 02:51:08;;;;;;;6.28;4.95;;;;;;;;;;5058123;28;20033;-81
2022/08/30 02:53:34;;;;;;;7.22;5.07;;;;;;;;;;5058653;28;20052;-81
2022/08/30 02:55:59;;;;;;;8.30;4.80;;;;;;;;;;5059524;28;20103;-82
2022/08/30 02:58:25;;;;;;;7.95;4.60;;;;;;;;;;5059435;28;20123;-81
2022/08/30 03:00:51;;;;;;;6.63;4.65;;;;;;;;;;5060143;28;20033;-82
2022/08/30 03:03:16;;;;;;;6.47;4.65;;;;;;;;;;5059482;28;20079;-81
2022/08/30 03:05:42;;;;;;;7.18;4.60;;;;;;;;;;5058604;28;20033;-81
2022/08/30 03:08:08;;;;;;;6.55;4.55;;;;;;;;;;5058211;28;20548;-82
2022/08/30 03:10:34;;;;;;;6.03;4.75;;;;;;;;;;5057055;28;20025;-82
2022/08/30 03:13:00;;;;;;;8.20;4.97;;;;;;;;;;5057804;28;20116;-82
2022/08/30 03:15:26;;;;;;;6.00;4.65;;;;;;;;;;5058687;28;20069;-81
2022/08/30 03:17:53;;;;;;;8.02;4.90;;;;;;;;;;5058343;28;20029;-82
2022/08/30 03:20:19;;;;;;;8.45;5.63;;;;;;;;;;5057832;28;20037;-82
2022/08/30 03:22:45;;;;;;;7.57;4.88;;;;;;;;;;5059829;28;20413;-82
2022/08/30 03:25:11;;;;;;;6.32;4.93;;;;;;;;;;5058683;28;20069;-82
2022/08/30 03:27:37;;;;;;;6.78;5.05;;;;;;;;;;5058581;28;20021;-82
2022/08/30 03:30:03;;;;;;;7.47;5.07;;;;;;;;;;5058464;28;20536;-81
2022/08/30 03:32:29;;;;;;;7.15;4.85;;;;;;;;;;5057973;28;20120;-82
2022/08/30 03:34:54;;;;;;;7.75;4.38;;;;;;;;;;5058290;28;20446;-83
2022/08/30 03:37:20;;;;;;;8.88;4.70;;;;;;;;;;5058622;28;20033;-82
2022/08/30 03:39:45;;;;;;;10.73;4.60;;;;;;;;;;5057485;28;20485;-81
2022/08/30 03:42:11;;;;;;;5.47;4.53;;;;;;;;;;5057443;28;20490;-82
2022/08/30 03:44:37;;;;;;;5.85;4.47;;;;;;;;;;5058514;28;20497;-83
2022/08/30 03:47:03;;;;;;;5.60;4.70;;;;;;;;;;5057147;28;20036;-81
2022/08/30 03:49:30;;;;;;;6.82;4.93;;;;;;;;;;5056943;28;20043;-82
2022/08/30 03:51:56;;;;;;;7.82;4.65;;;;;;;;;;5055740;28;20044;-83
2022/08/30 03:54:21;;;;;;;6.43;4.70;;;;;;;;;;5058136;28;20037;-81
2022/08/30 03:56:47;;;;;;;9.55;6.45;;;;;;;;;;5058013;28;20044;-82
2022/08/30 03:59:13;;;;;;;10.18;5.85;;;;;;;;;;5058216;28;20402;-82
2022/08/30 04:01:40;;;;;;;6.10;5.38;;;;;;;;;;5056668;28;20110;-83
2022/08/30 04:04:07;;;;;;;9.65;5.40;;;;;;;;;;5056897;28;20033;-82
2022/08/30 04:06:32;;;;;;;6.35;4.88;;;;;;;;;;5059246;28;20033;-82
2022/08/30 04:08:58;;;;;;;6.78;4.45;;;;;;;;;;5059493;28;20180;-81
2022/08/30 04:11:24;;;;;;;8.55;4.63;;;;;;;;;;5060682;28;20482;-81
2022/08/30 04:13:50;;;;;;;6.05;4.10;;;;;;;;;;5061383;28;20041;-82
2022/08/30 04:16:20;;;;;;;7.60;4.20;;;;;;;;;;5059294;28;20035;-81
2022/08/30 04:18:46;;;;;;;6.65;3.90;;;;;;;;;;5060650;28;20087;-80
2022/08/30 04:21:12;;;;;;;7.88;4.07;;;;;;;;;;5060480;28;20036;-82
2022/08/30 04:23:37;;;;;;;5.50;4.00;;;;;;;;;;5059268;28;20045;-83
2022/08/30 04:26:03;;;;;;;5.72;4.13;;;;;;;;;;5057306;28;20085;-83
2022/08/30 04:28:29;;;;;;;10.43;5.32;;;;;;;;;;5058458;28;20063;-82
2022/08/30 04:30:54;;;;;;;5.45;4.75;;;;;;;;;;5042295;28;20112;-85
2022/08/30 04:33:20;;;;;;;8.18;4.60;;;;;;;;;;5057394;28;20033;-83
2022/08/30 04:35:48;;;;;;;7.68;4.65;;;;;;;;;;5057238;28;20029;-83
2022/08/30 04:38:16;;;;;;;6.65;4.10;;;;;;;;;;5058633;28;20043;-83
2022/08/30 04:40:43;;;;;;;5.70;4.30;;;;;;;;;;5058004;28;20029;-82
2022/08/30 04:43:08;;;;;;;8.13;4.30;;;;;;;;;;5056873;28;20481;-88
2022/08/30 04:45:36;;;;;;;6.30;4.38;;;;;;;;;;5059992;28;20047;-85
2022/08/30 04:48:02;;;;;;;10.25;4.65;;;;;;;;;;5056438;28;20089;-82
2022/08/30 04:50:27;;;;;;;4.93;4.03;;;;;;;;;;5058090;28;20033;-82
2022/08/30 04:52:54;;;;;;;4.95;3.90;;;;;;;;;;5055995;28;20040;-84
2022/08/30 04:55:20;;;;;;;5.18;4.15;;;;;;;;;;5054711;28;20037;-82
2022/08/30 04:57:46;;;;;;;5.40;3.80;;;;;;;;;;5057751;28;20033;-84
2022/08/30 05:00:13;;;;;;;7.43;3.85;;;;;;;;;;5062355;28;20059;-86
2022/08/30 05:02:40;;;;;;;5.32;3.70;;;;;;;;;;5064572;28;20043;-85
2022/08/30 05:07:51;;;;;;;5.75;3.83;;;;;;;;;;5058224;28;20104;-82
2022/08/30 05:10:17;;;;;;;6.47;4.55;;;;;;;;;;5058326;28;20104;-82
2022/08/30 05:12:42;;;;;;;6.65;4.60;;;;;;;;;;5057821;28;20382;-82
2022/08/30 05:15:09;;;;;;;6.13;3.85;;;;;;;;;;5058121;28;20033;-82
2022/08/30 05:17:39;;;;;;;6.63;3.80;;;;;;;;;;5055899;28;20029;-82
2022/08/30 05:20:09;;;;;;;7.47;4.35;;;;;;;;;;5058401;28;20040;-82
2022/08/30 05:22:40;;;;;;;7.90;4.45;;;;;;;;;;5057376;28;20041;-82
2022/08/30 05:25:06;;;;;;;6.95;4.32;;;;;;;;;;5057972;28;20067;-83
2022/08/30 05:27:33;;;;;;;11.45;4.75;;;;;;;;;;5058689;28;20074;-82
2022/08/30 05:29:58;;;;;;;6.50;4.97;;;;;;;;;;5058350;28;20029;-83
2022/08/30 05:32:24;;;;;;;7.90;4.68;;;;;;;;;;5058198;28;20035;-83
2022/08/30 05:34:49;;;;;;;6.10;4.93;;;;;;;;;;5057581;28;20033;-81
2022/08/30 05:37:15;;;;;;;6.57;4.82;;;;;;;;;;5057465;28;20119;-82
2022/08/30 05:39:41;;;;;;;6.30;4.57;;;;;;;;;;5056732;28;20036;-82
2022/08/30 05:42:06;;;;;;;5.63;4.68;;;;;;;;;;5039001;28;20101;-83
2022/08/30 05:44:32;;;;;;;6.78;4.70;;;;;;;;;;5056504;28;20071;-81
2022/08/30 05:46:57;;;;;;;6.80;4.97;;;;;;;;;;5056526;28;20060;-81
2022/08/30 05:49:23;;;;;;;7.60;5.18;;;;;;;;;;5055829;28;20424;-82
2022/08/30 05:51:48;;;;;;;8.27;5.10;;;;;;;;;;5056779;28;20528;-81
2022/08/30 05:54:15;;;;;;;6.07;4.90;;;;;;;;;;5055675;28;20037;-80
2022/08/30 05:56:44;;;;;;;6.30;5.50;;;;;;;;;;5055331;28;20033;-81
2022/08/30 05:59:10;;;;;;;8.23;5.18;;;;;;;;;;5055758;28;20222;-82
2022/08/30 06:01:39;;;;;;;9.30;5.20;;;;;;;;;;5055753;28;20037;-82
2022/08/30 06:04:07;;;;;;;9.13;5.35;;;;;;;;;;5038192;28;20086;-82
2022/08/30 06:06:35;;;;;;;9.65;5.40;;;;;;;;;;5057805;28;20036;-80
2022/08/30 06:09:03;;;;;;;9.75;5.13;;;;;;;;;;5058697;28;20033;-81
2022/08/30 06:11:28;;;;;;;8.25;5.32;;;;;;;;;;5059810;28;20033;-81
2022/08/30 06:13:54;;;;;;;9.20;4.97;;;;;;;;;;5058396;28;20029;-82
2022/08/30 06:16:22;;;;;;;7.47;4.65;;;;;;;;;;5059360;28;20040;-82
2022/08/30 06:18:48;;;;;;;6.93;4.97;;;;;;;;;;5058205;28;20040;-81
2022/08/30 06:21:22;;;;;;;10.20;5.20;;;;;;;;;;5058841;28;20136;-81
2022/08/30 06:23:49;;;;;;;7.13;4.90;;;;;;;;;;5059619;28;20033;-81
2022/08/30 06:26:15;;;;;;;6.00;5.03;;;;;;;;;;5058703;28;20044;-82
2022/08/30 06:28:41;;;;;;;8.63;4.88;;;;;;;;;;5057838;28;20068;-81
2022/08/30 06:31:08;;;;;;;6.00;4.50;;;;;;;;;;5040737;28;20051;-81
2022/08/30 06:33:33;;;;;;;9.05;5.10;;;;;;;;;;5058520;28;20382;-80
2022/08/30 06:36:05;;;;;;;8.43;5.03;;;;;;;;;;5056915;28;20072;-81
2022/08/30 06:38:30;;;;;;;6.93;4.57;;;;;;;;;;5058144;28;20060;-81
2022/08/30 06:40:56;;;;;;;6.95;5.00;;;;;;;;;;5056858;28;20084;-82
2022/08/30 06:43:21;;;;;;;6.38;4.75;;;;;;;;;;5058754;28;20029;-83
2022/08/30 06:45:47;;;;;;;7.32;4.28;;;;;;;;;;5058335;28;20535;-80
2022/08/30 06:48:12;;;;;;;7.30;4.78;;;;;;;;;;5058120;28;20072;-81
2022/08/30 06:50:40;;;;;;;6.03;4.38;;;;;;;;;;5056885;28;20071;-81
2022/08/30 06:53:07;;;;;;;7.30;5.20;;;;;;;;;;5058294;28;20044;-82
2022/08/30 06:55:32;;;;;;;7.50;4.63;;;;;;;;;;5058017;28;20056;-80
2022/08/30 06:58:02;;;;;;;6.32;4.97;;;;;;;;;;5058257;28;20087;-81
2022/08/30 07:00:28;;;;;;;8.32;4.75;;;;;;;;;;5057912;28;20035;-81
2022/08/30 07:02:54;;;;;;;6.45;4.70;;;;;;;;;;5057865;28;20028;-81
2022/08/30 07:05:23;;;;;;;7.07;4.90;;;;;;;;;;5057317;28;20036;-81
2022/08/30 07:07:52;;;;;;;5.88;4.75;;;;;;;;;;5056760;28;20088;-82
2022/08/30 07:10:18;;;;;;;6.95;4.70;;;;;;;;;;5057615;28;20078;-81
2022/08/30 07:12:43;;;;;;;6.32;4.75;;;;;;;;;;5057765;28;20052;-81
2022/08/30 07:15:09;;;;;;;7.68;5.00;;;;;;;;;;5057395;28;20172;-82
2022/08/30 07:20:20;;;;;;;8.00;4.72;;;;;;;;;;5057032;28;20048;-83
2022/08/30 07:22:46;;;;;;;10.13;4.90;;;;;;;;;;5057154;28;20516;-80
2022/08/30 07:25:12;;;;;;;7.95;5.20;;;;;;;;;;5057802;28;20029;-83
2022/08/30 07:27:38;;;;;;;5.82;5.07;;;;;;;;;;5056913;28;20048;-81
2022/08/30 07:30:06;;;;;;;7.72;5.10;;;;;;;;;;5056562;28;20025;-82
2022/08/30 07:32:31;;;;;;;8.68;5.10;;;;;;;;;;5058303;28;20037;-84
2022/08/30 07:34:57;;;;;;;7.25;4.93;;;;;;;;;;5058389;28;20055;-82
2022/08/30 07:37:23;;;;;;;9.93;4.88;;;;;;;;;;5057296;28;20025;-83
2022/08/30 07:39:48;;;;;;;7.20;4.95;;;;;;;;;;5058973;28;20105;-83
2022/08/30 07:42:15;;;;;;;7.50;4.82;;;;;;;;;;5056678;28;20531;-83
2022/08/30 07:44:40;;;;;;;6.55;5.38;;;;;;;;;;5057097;28;20045;-82
2022/08/30 07:47:06;;;;;;;6.25;5.05;;;;;;;;;;5057505;28;20033;-81
2022/08/30 07:49:31;;;;;;;7.43;4.97;;;;;;;;;;5056583;28;20155;-81
2022/08/30 07:51:57;;;;;;;9.00;4.80;;;;;;;;;;5056246;28;20033;-82
2022/08/30 07:54:22;;;;;;;6.57;5.45;;;;;;;;;;5056760;28;20047;-83
2022/08/30 07:56:48;;;;;;;7.68;5.00;;;;;;;;;;5056624;28;20072;-84
2022/08/30 07:59:14;;;;;;;6.40;4.90;;;;;;;;;;5057375;28;20052;-82
2022/08/30 08:01:39;;;;;;;7.07;4.93;;;;;;;;;;5056553;28;20048;-82
2022/08/30 08:04:04;;;;;;;9.32;5.28;;;;;;;;;;5056301;28;20520;-85
2022/08/30 08:06:31;;;;;;;6.15;4.85;;;;;;;;;;5056770;28;20092;-81
2022/08/30 08:09:00;;;;;;;5.57;4.90;;;;;;;;;;5056532;28;20116;-82
2022/08/30 08:11:27;;;;;;;8.82;5.50;;;;;;;;;;5055733;28;20029;-82
2022/08/30 08:13:53;;;;;;;6.32;4.95;;;;;;;;;;5057118;28;20049;-82
2022/08/30 08:16:20;;;;;;;7.32;5.45;;;;;;;;;;5055653;28;20036;-81
2022/08/30 08:18:46;;;;;;;8.50;5.03;;;;;;;;;;5054638;28;20032;-80
2022/08/30 08:21:12;;;;;;;9.52;5.18;;;;;;;;;;5055316;28;20535;-83
2022/08/30 08:23:37;;;;;;;8.13;5.40;;;;;;;;;;5056062;28;20033;-84
2022/08/30 08:26:03;;;;;;;9.98;5.43;;;;;;;;;;5055705;28;20416;-82
2022/08/30 08:28:29;;;;;;;7.85;5.15;;;;;;;;;;5053960;28;20041;-82
2022/08/30 08:30:54;;;;;;;10.02;5.47;;;;;;;;;;5055395;28;20083;-82
2022/08/30 08:33:21;;;;;;;6.78;5.10;;;;;;;;;;5056065;28;20037;-83
2022/08/30 08:35:48;;;;;;;11.10;5.15;;;;;;;;;;5055229;28;20053;-82
2022/08/30 08:38:14;;;;;;;7.07;5.20;;;;;;;;;;5054752;28;20051;-82
2022/08/30 08:41:08;;;;;;;5.78;5.13;;;;;;;;;;5055007;28;20392;-81
2022/08/30 08:43:36;;;;;;;6.75;5.00;;;;;;;;;;5055923;28;20397;-82
2022/08/30 08:46:35;;;;;;;7.97;4.88;;;;;;;;;;5054762;28;20041;-82
2022/08/30 08:49:04;;;;;;;6.72;5.20;;;;;;;;;;5056012;28;20063;-82
2022/08/30 08:54:29;;;;;;;8.25;4.80;;;;;;;;;;5053883;28;20044;-81
2022/08/30 08:56:55;;;;;;;7.03;4.85;;;;;;;;;;5055515;28;20045;-82
2022/08/30 08:59:21;;;;;;;7.38;4.80;;;;;;;;;;5055352;28;20029;-82
2022/08/30 09:01:47;;;;;;;5.93;5.20;;;;;;;;;;5055251;28;20040;-81
2022/08/30 09:04:23;;;;;;;8.23;5.82;;;;;;;;;;5053707;28;20112;-82
2022/08/30 09:06:57;;;;;;;8.82;5.78;;;;;;;;;;5055418;28;20033;-82
2022/08/30 09:09:30;;;;;;;6.70;5.30;;;;;;;;;;5054700;28;20409;-82
2022/08/30 09:11:56;;;;;;;7.80;5.38;;;;;;;;;;5054343;28;20557;-84
2022/08/30 09:14:25;;;;;;;7.57;5.10;;;;;;;;;;5055111;28;20105;-83
2022/08/30 09:16:59;;;;;;;6.80;5.25;;;;;;;;;;5054648;28;20505;-82
2022/08/30 09:19:30;;;;;;;7.28;5.90;;;;;;;;;;5054701;28;20036;-83
2022/08/30 09:22:26;;;;;;;9.82;6.03;;;;;;;;;;5053410;28;20045;-82
2022/08/30 09:25:00;;;;;;;8.32;5.72;;;;;;;;;;5047603;28;20048;-82
2022/08/30 09:27:30;;;;;;;5.93;5.32;;;;;;;;;;5053154;28;20516;-82
2022/08/30 09:29:57;;;;;;;8.32;6.07;;;;;;;;;;5053031;28;20032;-81
2022/08/30 09:32:53;;;;;;;9.18;6.75;;;;;;;;;;5053148;28;20040;-82
2022/08/30 09:35:23;;;;;;;7.22;5.82;;;;;;;;;;5029390;28;20045;-83
2022/08/30 09:37:55;;;;;;;11.25;5.72;;;;;;;;;;5052910;28;20140;-83
2022/08/30 09:40:39;;;;;;;10.55;6.28;;;;;;;;;;5050976;28;20052;-82
2022/08/30 09:43:18;;;;;;;7.55;6.40;;;;;;;;;;5053142;28;20043;-82
2022/08/30 09:45:46;;;;;;;8.88;6.25;;;;;;;;;;5052207;28;20036;-83
2022/08/30 09:48:37;;;;;;;8.82;5.93;;;;;;;;;;5052544;28;20041;-82
2022/08/30 09:51:11;;;;;;;6.95;6.15;;;;;;;;;;5052765;28;20056;-83
2022/08/30 09:54:14;;;;;;;7.50;6.22;;;;;;;;;;5053727;28;20037;-83
2022/08/30 09:56:51;;;;;;;9.13;5.90;;;;;;;;;;5052339;28;20037;-83
2022/08/30 09:59:42;;;;;;;7.22;5.97;;;;;;;;;;5053570;28;20036;-83
2022/08/30 10:02:51;;;;;;;8.55;5.88;;;;;;;;;;5054143;28;20047;-83
2022/08/30 10:05:41;;;;;;;8.15;5.35;;;;;;;;;;5052345;28;20032;-82
2022/08/30 10:08:48;;;;;;;5.85;5.20;;;;;;;;;;5053543;28;20436;-83
2022/08/30 10:11:55;;;;;;;7.72;5.50;;;;;;;;;;5001006;28;20183;-83
2022/08/30 10:14:51;;;;;;;7.63;5.20;;;;;;;;;;5046072;28;20521;-83
2022/08/30 10:17:43;;;;;;;10.60;5.80;;;;;;;;;;5036015;28;20493;-83
2022/08/30 10:20:18;;;;;;;9.05;5.47;;;;;;;;;;5052438;28;20041;-83
2022/08/30 10:22:51;;;;;;;7.07;5.72;;;;;;;;;;5053767;28;20505;-83
2022/08/30 10:25:24;;;;;;;7.88;5.85;;;;;;;;;;5053549;28;20037;-83
2022/08/30 10:28:15;;;;;;;9.05;5.95;;;;;;;;;;5053823;28;20064;-83
2022/08/30 10:30:51;;;;;;;8.77;6.18;;;;;;;;;;5046114;28;20896;-83
2022/08/30 10:33:33;;;;;;;9.05;5.15;;;;;;;;;;5053320;28;20037;-81
2022/08/30 10:36:02;;;;;;;8.13;5.35;;;;;;;;;;5051800;28;20029;-83
2022/08/30 10:38:32;;;;;;;7.03;5.18;;;;;;;;;;5052602;28;20508;-82
2022/08/30 10:41:36;;;;;;;8.25;5.22;;;;;;;;;;5050931;28;20036;-83
2022/08/30 10:44:17;;;;;;;6.38;5.10;;;;;;;;;;5050699;28;20075;-83
2022/08/30 10:47:05;;;;;;;7.22;5.38;;;;;;;;;;5051347;28;20045;-83
2022/08/30 10:49:38;;;;;;;8.32;5.45;;;;;;;;;;5035022;28;20588;-82
2022/08/30 10:52:30;;;;;;;6.65;5.30;;;;;;;;;;5053980;28;20029;-82
2022/08/30 10:55:06;;;;;;;6.20;4.80;;;;;;;;;;5056048;28;20032;-83
2022/08/30 10:57:31;;;;;;;5.93;4.43;;;;;;;;;;5055834;28;20064;-83
2022/08/30 11:00:01;;;;;;;4.82;4.00;;;;;;;;;;5054186;28;20072;-82
2022/08/30 11:02:26;;;;;;;5.70;4.35;;;;;;;;;;5056149;28;20029;-83
2022/08/30 11:05:05;;;;;;;6.07;4.50;;;;;;;;;;5055835;28;20112;-83
2022/08/30 11:07:31;;;;;;;6.53;4.70;;;;;;;;;;5056129;28;20041;-83
2022/08/30 11:10:05;;;;;;;6.20;4.65;;;;;;;;;;5054670;28;20079;-83
2022/08/30 11:12:39;;;;;;;5.75;4.35;;;;;;;;;;5054878;28;20051;-83
2022/08/30 11:15:36;;;;;;;7.35;4.40;;;;;;;;;;5054334;28;20482;-83
2022/08/30 11:18:12;;;;;;;4.70;4.07;;;;;;;;;;5033911;28;20052;-83
2022/08/30 11:20:38;;;;;;;7.43;4.10;;;;;;;;;;5054468;28;20036;-83
2022/08/30 11:23:19;;;;;;;6.72;4.20;;;;;;;;;;5054408;28;20025;-82
2022/08/30 11:25:53;;;;;;;16.05;5.80;;;;;;;;;;5054732;28;20024;-83
2022/08/30 11:28:34;;;;;;;4.97;4.15;;;;;;;;;;5055541;28;20501;-83
2022/08/30 11:31:17;;;;;;;6.45;4.68;;;;;;;;;;5055745;28;20029;-83
2022/08/30 11:33:51;;;;;;;6.63;4.50;;;;;;;;;;5056575;28;20044;-83
2022/08/30 11:36:34;;;;;;;7.05;4.50;;;;;;;;;;5054013;28;20128;-82
2022/08/30 11:39:47;;;;;;;5.13;4.15;;;;;;;;;;5053856;28;20037;-83
2022/08/30 11:42:24;;;;;;;7.07;4.53;;;;;;;;;;5028275;28;20068;-83
2022/08/30 11:44:50;;;;;;;6.40;4.40;;;;;;;;;;5054170;28;20033;-83
2022/08/30 11:47:38;;;;;;;5.13;4.53;;;;;;;;;;5055301;28;20040;-83
2022/08/30 11:50:32;;;;;;;10.05;4.43;;;;;;;;;;5037729;28;20028;-83
2022/08/30 11:53:06;;;;;;;6.20;4.57;;;;;;;;;;5054286;28;20037;-83
2022/08/30 11:55:45;;;;;;;5.57;4.43;;;;;;;;;;5054946;28;20389;-83
2022/08/30 11:58:22;;;;;;;6.28;4.75;;;;;;;;;;5055293;28;20075;-83
2022/08/30 12:01:31;;;;;;;6.18;4.60;;;;;;;;;;5054718;28;20068;-83
2022/08/30 12:03:57;;;;;;;8.10;4.50;;;;;;;;;;5046428;28;20460;-83
2022/08/30 12:06:41;;;;;;;6.03;4.18;;;;;;;;;;5054311;28;20037;-83
2022/08/30 12:09:25;;;;;;;7.07;3.80;;;;;;;;;;5055426;28;20064;-83
2022/08/30 12:12:01;;;;;;;3.88;3.47;;;;;;;;;;5055193;28;20049;-83
2022/08/30 12:14:43;;;;;;;6.35;4.18;;;;;;;;;;5053510;28;20485;-83
2022/08/30 12:20:20;;;;;;;6.60;3.97;;;;;;;;;;5054766;28;20041;-83
2022/08/30 12:22:45;;;;;;;6.60;4.20;;;;;;;;;;5054933;28;20028;-83
2022/08/30 12:25:22;;;;;;;6.28;4.20;;;;;;;;;;5054060;28;20550;-83
2022/08/30 12:27:48;;;;;;;4.75;3.90;;;;;;;;;;5054053;28;20086;-83
2022/08/30 12:30:23;;;;;;;6.20;4.00;;;;;;;;;;5053836;28;20424;-83
2022/08/30 12:32:51;;;;;;;6.50;4.20;;;;;;;;;;5053722;28;20496;-82
2022/08/30 12:35:24;;;;;;;4.57;3.97;;;;;;;;;;5053653;28;20085;-82
2022/08/30 12:38:04;;;;;;;4.32;3.58;;;;;;;;;;5052658;28;20039;-82
2022/08/30 12:40:33;;;;;;;6.28;3.83;;;;;;;;;;5053765;28;20456;-82
2022/08/30 12:43:16;;;;;;;5.40;3.92;;;;;;;;;;5053794;28;20047;-83
2022/08/30 12:45:45;;;;;;;5.70;4.25;;;;;;;;;;5035792;28;20044;-83
2022/08/30 12:48:15;;;;;;;6.88;4.15;;;;;;;;;;5052608;28;20045;-83
2022/08/30 12:50:52;;;;;;;4.45;3.97;;;;;;;;;;5052508;28;20485;-82
2022/08/30 12:53:40;;;;;;;7.10;4.18;;;;;;;;;;5052013;28;20071;-82
2022/08/30 12:56:10;;;;;;;5.10;3.80;;;;;;;;;;5053210;28;20068;-83
2022/08/30 12:58:49;;;;;;;6.15;3.90;;;;;;;;;;5051904;28;20079;-82
2022/08/30 13:01:26;;;;;;;4.88;4.05;;;;;;;;;;5051963;28;20120;-83
2022/08/30 13:04:20;;;;;;;4.35;3.83;;;;;;;;;;5053054;28;20175;-83
2022/08/30 13:06:54;;;;;;;6.80;4.20;;;;;;;;;;5044625;28;20040;-80
2022/08/30 13:09:23;;;;;;;4.50;3.78;;;;;;;;;;5053348;28;20024;-83
2022/08/30 13:11:50;;;;;;;7.05;3.90;;;;;;;;;;5053603;28;20053;-83
2022/08/30 13:14:34;;;;;;;5.30;4.05;;;;;;;;;;5052904;28;20041;-83
2022/08/30 13:17:27;;;;;;;4.70;3.78;;;;;;;;;;5053307;28;20047;-83
2022/08/30 13:19:58;;;;;;;6.53;4.13;;;;;;;;;;5049592;28;20072;-84
2022/08/30 13:22:34;;;;;;;7.90;3.90;;;;;;;;;;5053250;28;20036;-83
2022/08/30 13:25:00;;;;;;;5.30;4.15;;;;;;;;;;5054190;28;20048;-83
2022/08/30 13:27:27;;;;;;;4.97;3.83;;;;;;;;;;5054973;28;20036;-83
2022/08/30 13:29:53;;;;;;;6.97;4.00;;;;;;;;;;5054197;28;20071;-83
2022/08/30 13:32:19;;;;;;;4.38;3.75;;;;;;;;;;5053141;28;20128;-83
2022/08/30 13:34:45;;;;;;;5.18;3.80;;;;;;;;;;5053989;28;20048;-83
2022/08/30 13:37:21;;;;;;;5.38;3.80;;;;;;;;;;5054495;28;20025;-83
2022/08/30 13:39:46;;;;;;;4.63;3.80;;;;;;;;;;5053656;28;20076;-82
2022/08/30 13:42:12;;;;;;;5.00;4.00;;;;;;;;;;5054220;28;20040;-83
2022/08/30 13:44:37;;;;;;;5.18;3.60;;;;;;;;;;5052918;28;20099;-83
2022/08/30 13:47:04;;;;;;;7.13;4.25;;;;;;;;;;5053986;28;20033;-83
2022/08/30 13:49:34;;;;;;;4.70;3.60;;;;;;;;;;5035956;28;20037;-84
2022/08/30 13:52:01;;;;;;;4.60;3.60;;;;;;;;;;5036443;28;20040;-84
2022/08/30 13:54:26;;;;;;;4.90;4.00;;;;;;;;;;5053949;28;20068;-84
2022/08/30 13:56:53;;;;;;;3.83;3.38;;;;;;;;;;5054509;28;20106;-84
2022/08/30 13:59:20;;;;;;;6.32;3.75;;;;;;;;;;5052569;28;20029;-83
2022/08/30 14:01:47;;;;;;;5.60;3.50;;;;;;;;;;5053734;28;20029;-84
2022/08/30 14:04:12;;;;;;;7.05;3.30;;;;;;;;;;5052896;28;20044;-83
2022/08/30 14:06:38;;;;;;;4.78;3.35;;;;;;;;;;5054057;28;20474;-83
2022/08/30 14:09:05;;;;;;;5.00;3.35;;;;;;;;;;5054382;28;20072;-83
2022/08/30 14:11:32;;;;;;;5.07;3.58;;;;;;;;;;5053767;28;20097;-83
2022/08/30 14:13:57;;;;;;;4.93;3.40;;;;;;;;;;5054166;28;20398;-82
2022/08/30 14:16:23;;;;;;;5.78;3.75;;;;;;;;;;5054646;28;20025;-83
2022/08/30 14:18:49;;;;;;;9.05;3.72;;;;;;;;;;5054463;28;20630;-83
2022/08/30 14:21:14;;;;;;;4.00;3.50;;;;;;;;;;5053803;28;20044;-83
2022/08/30 14:23:40;;;;;;;3.33;3.03;;;;;;;;;;5053789;28;20033;-83
2022/08/30 14:26:12;;;;;;;6.70;3.40;;;;;;;;;;5053673;28;20041;-84
2022/08/30 14:28:38;;;;;;;5.75;3.60;;;;;;;;;;5056803;28;20748;-83
2022/08/30 14:31:03;;;;;;;7.68;3.40;;;;;;;;;;5058067;28;20040;-83
2022/08/30 14:33:29;;;;;;;5.30;3.80;;;;;;;;;;5056801;28;20072;-83
2022/08/30 14:35:54;;;;;;;5.82;3.50;;;;;;;;;;5057555;28;20028;-82
2022/08/30 14:38:19;;;;;;;4.32;3.38;;;;;;;;;;5058020;28;20033;-83
2022/08/30 14:40:45;;;;;;;4.85;3.33;;;;;;;;;;5056503;28;20033;-84
2022/08/30 14:43:10;;;;;;;8.77;3.55;;;;;;;;;;5057546;28;20029;-84
2022/08/30 14:45:37;;;;;;;4.88;3.47;;;;;;;;;;5056252;28;20482;-84
2022/08/30 14:48:07;;;;;;;5.13;3.38;;;;;;;;;;5056452;28;20516;-83
2022/08/30 14:50:34;;;;;;;4.75;3.33;;;;;;;;;;5039776;28;20395;-84
2022/08/30 14:53:00;;;;;;;3.88;3.03;;;;;;;;;;5057941;28;20116;-84
2022/08/30 14:55:27;;;;;;;4.18;3.20;;;;;;;;;;5057299;28;20465;-84
2022/08/30 14:57:53;;;;;;;4.50;3.40;;;;;;;;;;5057949;28;20059;-83
2022/08/30 15:00:18;;;;;;;4.93;3.42;;;;;;;;;;5057451;28;20490;-83
2022/08/30 15:02:44;;;;;;;4.55;3.55;;;;;;;;;;5057519;28;20041;-84
2022/08/30 15:05:10;;;;;;;6.22;3.50;;;;;;;;;;5057378;28;20399;-83
2022/08/30 15:07:35;;;;;;;3.78;3.13;;;;;;;;;;5056160;28;20041;-84
2022/08/30 15:10:02;;;;;;;5.05;3.78;;;;;;;;;;5057035;28;20033;-83
2022/08/30 15:12:28;;;;;;;4.75;3.55;;;;;;;;;;5056198;28;20061;-83